createdAt,value
2023-01-28T00:03:41.102Z,89.88
2023-01-28T00:08:42.115Z,90.49
2023-01-28T00:13:44.670Z,90.21
2023-01-28T00:18:46.468Z,90.46
2023-01-28T00:23:51.610Z,90.43
2023-01-28T00:28:53.697Z,90.79
2023-01-28T00:33:55.783Z,89.39
2023-01-28T00:38:58.875Z,89.25
2023-01-28T00:44:00.962Z,88.87
2023-01-28T00:49:03.363Z,88.02
2023-01-28T00:54:04.059Z,87.98
2023-01-28T00:59:06.333Z,87.70
2023-01-28T01:04:07.080Z,87.21
2023-01-28T01:09:11.932Z,86.70
2023-01-28T01:14:15.831Z,87.16
2023-01-28T01:19:16.515Z,86.93
2023-01-28T01:24:17.816Z,86.64
2023-01-28T01:29:19.871Z,86.93
2023-01-28T01:34:20.585Z,87.00
2023-01-28T01:39:23.013Z,87.68
2023-01-28T01:44:58.706Z,86.92
2023-01-28T01:50:01.382Z,86.51
2023-01-28T01:55:06.288Z,85.81
2023-01-28T02:00:10.661Z,86.63
2023-01-28T02:05:23.057Z,86.14
2023-01-28T02:10:25.408Z,85.69
2023-01-28T02:15:29.806Z,85.06
2023-01-28T02:20:45.690Z,84.32
2023-01-28T02:26:11.695Z,84.69
2023-01-28T02:31:19.954Z,84.74
2023-01-28T02:36:29.507Z,84.99
2023-01-28T02:41:35.571Z,84.99
2023-01-28T02:46:56.635Z,85.32
2023-01-28T02:52:10.031Z,84.86
2023-01-28T02:57:25.367Z,86.03
2023-01-28T03:02:36.654Z,86.37
2023-01-28T03:07:39.709Z,85.79
2023-01-28T03:13:01.584Z,85.85
2023-01-28T03:18:25.766Z,86.00
2023-01-28T03:23:51.270Z,85.40
2023-01-28T03:29:13.221Z,85.58
2023-01-28T03:34:32.994Z,85.13
2023-01-28T03:39:33.773Z,84.87
2023-01-28T03:44:50.603Z,85.17
2023-01-28T03:49:55.279Z,85.44
2023-01-28T03:54:57.353Z,85.70
2023-01-28T03:59:59.338Z,85.38
2023-01-28T04:05:07.096Z,85.61
2023-01-28T04:10:11.070Z,85.73
2023-01-28T04:15:35.903Z,84.96
2023-01-28T04:20:38.455Z,84.70
2023-01-28T04:25:39.301Z,84.23
2023-01-28T04:30:42.833Z,83.72
2023-01-28T04:35:58.833Z,84.44
2023-01-28T04:41:18.501Z,82.98
2023-01-28T04:46:19.320Z,81.88
2023-01-28T04:51:36.905Z,81.51
2023-01-28T04:56:51.780Z,81.69
2023-01-28T05:01:53.147Z,81.07
2023-01-28T05:06:56.643Z,80.69
2023-01-28T05:12:01.619Z,80.71
2023-01-28T05:17:04.773Z,80.50
2023-01-28T05:22:07.731Z,79.98
2023-01-28T05:27:17.358Z,79.03
2023-01-28T05:32:18.274Z,78.80
2023-01-28T05:37:20.805Z,78.80
2023-01-28T05:42:23.976Z,78.67
2023-01-28T05:47:30.258Z,77.86
2023-01-28T05:52:39.971Z,78.35
2023-01-28T05:57:46.464Z,78.72
2023-01-28T06:02:49.320Z,78.11
2023-01-28T06:07:52.430Z,78.38
2023-01-28T06:12:54.073Z,78.52
2023-01-28T06:18:13.930Z,78.53
2023-01-28T06:23:16.274Z,78.07
2023-01-28T06:28:17.093Z,78.14
2023-01-28T06:33:17.793Z,77.62
2023-01-28T06:38:19.857Z,76.42
2023-01-28T06:43:20.551Z,77.29
2023-01-28T06:48:21.453Z,76.99
2023-01-28T06:53:23.765Z,77.02
2023-01-28T06:58:24.458Z,77.46
2023-01-28T07:03:26.295Z,76.71
2023-01-28T07:08:28.356Z,76.52
2023-01-28T07:13:29.015Z,74.56
2023-01-28T07:18:29.722Z,74.24
2023-01-28T07:23:31.782Z,73.90
2023-01-28T07:28:32.765Z,73.84
2023-01-28T07:33:33.445Z,72.87
2023-01-28T07:38:35.433Z,72.50
2023-01-28T07:43:36.079Z,71.59
2023-01-28T07:48:36.870Z,70.89
2023-01-28T07:53:39.003Z,72.17
2023-01-28T07:58:39.701Z,72.03
2023-01-28T08:03:40.354Z,72.70
2023-01-28T08:08:42.914Z,69.49
2023-01-28T08:13:43.632Z,70.42
2023-01-28T08:18:44.397Z,69.29
2023-01-28T08:23:46.483Z,69.16
2023-01-28T08:28:47.229Z,68.94
2023-01-28T08:33:47.906Z,68.82
2023-01-28T08:38:54.125Z,68.25
2023-01-28T08:43:54.796Z,68.33
2023-01-28T08:48:55.480Z,68.48
2023-01-28T08:53:57.561Z,67.85
2023-01-28T08:58:58.259Z,67.56
2023-01-28T09:04:00.102Z,67.18
2023-01-28T09:09:02.580Z,67.74
2023-01-28T09:14:03.285Z,67.78
2023-01-28T09:19:03.995Z,67.97
2023-01-28T09:24:06.495Z,67.12
2023-01-28T09:29:07.292Z,67.44
2023-01-28T09:34:07.998Z,66.94
2023-01-28T09:39:10.555Z,66.55
2023-01-28T09:44:33.491Z,65.84
2023-01-28T09:49:38.059Z,65.83
2023-01-28T09:54:45.878Z,63.74
2023-01-28T09:59:46.538Z,65.03
2023-01-28T10:04:59.822Z,63.80
2023-01-28T10:10:05.883Z,64.05
2023-01-28T10:15:27.408Z,63.11
2023-01-28T10:20:33.123Z,62.75
2023-01-28T10:25:36.038Z,63.01
2023-01-28T10:30:41.749Z,62.84
2023-01-28T10:35:43.652Z,63.27
2023-01-28T10:40:48.035Z,62.92
2023-01-28T10:45:58.751Z,72.33
2023-01-28T10:51:01.998Z,66.87
2023-01-28T10:56:06.804Z,63.18
2023-01-28T11:01:08.779Z,62.89
2023-01-28T11:06:25.738Z,63.14
2023-01-28T11:11:29.789Z,64.21
2023-01-28T11:16:30.792Z,63.31
2023-01-28T11:21:33.023Z,63.11
2023-01-28T11:26:39.153Z,63.57
2023-01-28T11:31:44.325Z,62.77
2023-01-28T11:36:52.146Z,63.00
2023-01-28T11:41:54.806Z,63.18
2023-01-28T11:47:17.236Z,63.08
2023-01-28T11:52:26.955Z,62.54
2023-01-28T11:57:39.905Z,63.09
2023-01-28T12:02:52.113Z,63.70
2023-01-28T12:07:58.943Z,63.88
2023-01-28T12:13:18.587Z,63.88
2023-01-28T12:18:42.293Z,63.43
2023-01-28T12:24:01.148Z,63.98
2023-01-28T12:29:15.804Z,62.77
2023-01-28T12:34:38.025Z,62.94
2023-01-28T12:39:53.431Z,63.99
2023-01-28T12:45:00.612Z,62.99
2023-01-28T12:50:07.151Z,62.92
2023-01-28T12:55:16.449Z,62.76
2023-01-28T13:00:27.431Z,62.32
2023-01-28T13:05:35.060Z,62.31
2023-01-28T13:10:39.588Z,62.30
2023-01-28T13:15:44.527Z,62.77
2023-01-28T13:20:49.736Z,61.56
2023-01-28T13:25:52.413Z,62.03
2023-01-28T13:31:03.541Z,61.76
2023-01-28T13:36:26.564Z,62.45
2023-01-28T13:41:38.511Z,63.16
2023-01-28T13:46:40.604Z,62.94
2023-01-28T13:51:56.110Z,63.22
2023-01-28T13:57:17.310Z,63.16
2023-01-28T14:02:46.645Z,63.49
2023-01-28T14:08:10.719Z,62.62
2023-01-28T14:13:50.412Z,63.15
2023-01-28T14:18:53.307Z,63.14
2023-01-28T14:23:58.130Z,63.37
2023-01-28T14:29:10.120Z,63.89
2023-01-28T14:34:21.183Z,64.03
2023-01-28T14:39:27.268Z,63.84
2023-01-28T14:44:32.752Z,63.83
2023-01-28T14:49:49.031Z,61.52
2023-01-28T14:55:01.602Z,61.71
2023-01-28T15:00:02.296Z,62.44
2023-01-28T15:05:14.454Z,62.08
2023-01-28T15:10:18.255Z,61.15
2023-01-28T15:15:26.689Z,61.75
2023-01-28T15:20:28.830Z,61.23
2023-01-28T15:25:30.974Z,61.54
2023-01-28T15:30:33.428Z,61.56
2023-01-28T15:35:37.433Z,60.54
2023-01-28T15:40:43.356Z,61.24
2023-01-28T15:45:47.990Z,61.21
2023-01-28T15:50:59.804Z,61.53
2023-01-28T15:56:09.076Z,61.69
2023-01-28T16:01:19.591Z,61.09
2023-01-28T16:06:23.482Z,60.52
2023-01-28T16:11:29.259Z,61.22
2023-01-28T16:16:33.112Z,61.03
2023-01-28T16:21:38.521Z,60.96
2023-01-28T16:26:39.299Z,60.25
2023-01-28T16:31:40.166Z,60.47
2023-01-28T16:36:42.538Z,68.97
2023-01-28T16:41:45.473Z,61.53
2023-01-28T16:46:46.922Z,61.09
2023-01-28T16:51:48.985Z,60.57
2023-01-28T16:56:50.297Z,60.76
2023-01-28T17:01:51.163Z,60.66
2023-01-28T17:06:54.054Z,60.60
2023-01-28T17:11:54.783Z,60.22
2023-01-28T17:16:55.533Z,60.96
2023-01-28T17:21:59.177Z,60.72
2023-01-28T17:26:59.882Z,60.66
2023-01-28T17:32:00.617Z,61.00
2023-01-28T17:37:02.711Z,60.92
2023-01-28T17:42:03.495Z,61.39
2023-01-28T17:47:04.240Z,61.38
2023-01-28T17:52:06.415Z,61.52
2023-01-28T17:57:07.127Z,60.90
2023-01-28T18:02:10.973Z,61.17
2023-01-28T18:07:13.065Z,61.33
2023-01-28T18:12:16.494Z,60.47
2023-01-28T18:17:17.307Z,60.57
2023-01-28T18:22:19.543Z,61.45
2023-01-28T18:27:20.977Z,61.88
2023-01-28T18:32:21.631Z,62.91
2023-01-28T18:37:23.717Z,63.11
2023-01-28T18:42:24.406Z,63.76
2023-01-28T18:47:25.100Z,63.54
2023-01-28T18:52:27.145Z,63.35
2023-01-28T18:57:27.926Z,63.41
2023-01-28T19:02:28.802Z,63.81
2023-01-28T19:07:32.736Z,63.12
2023-01-28T19:12:33.428Z,64.07
2023-01-28T19:17:35.539Z,63.91
2023-01-28T19:22:37.717Z,64.11
2023-01-28T19:27:38.474Z,64.65
2023-01-28T19:32:39.214Z,64.27
2023-01-28T19:37:41.229Z,64.14
2023-01-28T19:42:41.936Z,67.04
2023-01-28T19:47:42.610Z,67.72
2023-01-28T19:52:44.658Z,67.64
2023-01-28T19:57:45.534Z,68.18
2023-01-28T20:02:46.259Z,68.11
2023-01-28T20:07:48.376Z,68.36
2023-01-28T20:12:49.096Z,68.70
2023-01-28T20:17:49.834Z,69.26
2023-01-28T20:22:51.857Z,70.03
2023-01-28T20:27:52.547Z,70.54
2023-01-28T20:32:53.337Z,70.77
2023-01-28T20:37:55.376Z,70.35
2023-01-28T20:42:56.054Z,70.72
2023-01-28T20:47:56.768Z,70.62
2023-01-28T20:52:58.932Z,70.15
2023-01-28T20:57:59.727Z,69.88
2023-01-28T21:03:00.574Z,70.61
2023-01-28T21:08:02.606Z,70.62
2023-01-28T21:13:03.319Z,69.94
2023-01-28T21:18:04.845Z,69.71
2023-01-28T21:23:06.975Z,69.60
2023-01-28T21:28:07.764Z,69.58
2023-01-28T21:33:08.942Z,70.07
2023-01-28T21:38:12.349Z,70.09
2023-01-28T21:43:13.518Z,70.71
2023-01-28T21:48:14.347Z,69.51
2023-01-28T21:53:16.399Z,69.36
2023-01-28T21:58:34.610Z,69.58
2023-01-28T22:03:35.296Z,69.59
2023-01-28T22:08:37.402Z,68.06
2023-01-28T22:13:38.441Z,66.24
2023-01-28T22:18:39.128Z,65.60
2023-01-28T22:23:41.168Z,65.08
2023-01-28T22:28:41.822Z,63.75
2023-01-28T22:33:43.482Z,64.66
2023-01-28T22:38:46.827Z,64.39
2023-01-28T22:43:48.065Z,64.44
2023-01-28T22:48:49.718Z,64.65
2023-01-28T22:53:52.745Z,64.80
2023-01-28T22:58:55.666Z,64.64
2023-01-28T23:03:56.839Z,64.92
2023-01-28T23:08:58.911Z,65.14
2023-01-28T23:14:19.429Z,65.29
2023-01-28T23:19:37.826Z,65.11
2023-01-28T23:24:39.842Z,65.21
2023-01-28T23:29:40.493Z,65.51
2023-01-28T23:34:44.429Z,65.67
2023-01-28T23:39:46.451Z,65.37
2023-01-28T23:44:47.578Z,65.66
2023-01-28T23:49:48.239Z,65.61
2023-01-28T23:54:50.326Z,66.11
2023-01-28T23:59:51.886Z,66.79
